Time;durP1;ratioP1;P1;durP2;ratioP2;P2;SDS_P1;SDS_P2;PMS_P1;PMS_P2;Temp;Humidity;BMP_temperature;BMP_pressure;BME280_temperature;BME280_humidity;BME280_pressure;Samples;Min_cycle;Max_cycle;Signal;HPM_P1;HPM_P2
2022/08/01 00:00:10;;;;;;;10.95;6.53;;;;;;;18.93;100.00;99889.78;5031768;28;20083;-78
2022/08/01 00:02:39;;;;;;;12.38;6.30;;;;;;;19.05;100.00;99885.56;5028380;28;20044;-77
2022/08/01 00:05:06;;;;;;;9.32;5.50;;;;;;;19.09;100.00;99892.09;5029830;28;20451;-82
2022/08/01 00:07:32;;;;;;;12.07;6.65;;;;;;;19.11;100.00;99882.34;5033866;28;20029;-81
2022/08/01 00:09:57;;;;;;;9.23;6.20;;;;;;;19.19;100.00;99886.31;5043123;28;20036;-88
2022/08/01 00:12:23;;;;;;;10.60;6.97;;;;;;;18.96;100.00;99885.53;5045030;28;20031;-88
2022/08/01 00:14:48;;;;;;;11.00;6.43;;;;;;;19.01;100.00;99886.22;5036206;28;20290;-88
2022/08/01 00:17:13;;;;;;;11.83;6.67;;;;;;;18.94;100.00;99885.84;5035878;28;20338;-88
2022/08/01 00:19:38;;;;;;;12.23;6.97;;;;;;;18.90;100.00;99888.44;5045142;28;20280;-83
2022/08/01 00:22:04;;;;;;;14.13;7.57;;;;;;;18.89;100.00;99889.59;5062019;28;20296;-81
2022/08/01 00:24:29;;;;;;;10.77;6.70;;;;;;;18.98;100.00;99875.81;5072475;28;20344;-82
2022/08/01 00:26:54;;;;;;;11.73;7.23;;;;;;;18.93;100.00;99878.72;5072711;28;20728;-82
2022/08/01 00:29:19;;;;;;;11.00;7.50;;;;;;;18.93;100.00;99877.91;5067666;28;20266;-82
2022/08/01 00:31:45;;;;;;;13.60;8.67;;;;;;;18.77;100.00;99881.88;5053559;28;20823;-82
2022/08/01 00:34:10;;;;;;;11.65;7.80;;;;;;;18.75;100.00;99884.16;5053312;28;20281;-82
2022/08/01 00:36:35;;;;;;;13.68;8.07;;;;;;;18.78;100.00;99883.53;5069842;28;20029;-85
2022/08/01 00:39:01;;;;;;;12.43;8.20;;;;;;;18.77;100.00;99884.66;5068791;28;20035;-85
2022/08/01 00:41:26;;;;;;;15.00;8.52;;;;;;;18.98;100.00;99888.78;5051566;28;20326;-83
2022/08/01 00:43:51;;;;;;;15.07;9.48;;;;;;;19.04;100.00;99878.44;5053446;28;20033;-83
2022/08/01 00:46:16;;;;;;;17.42;9.20;;;;;;;19.02;100.00;99876.78;5073225;28;20017;-96
2022/08/01 00:48:42;;;;;;;16.20;9.63;;;;;;;19.07;100.00;99881.38;5075330;22;20052;-79
2022/08/01 00:51:07;;;;;;;16.30;9.93;;;;;;;18.93;100.00;99884.25;5056771;28;20339;-79
2022/08/01 00:53:33;;;;;;;11.75;7.72;;;;;;;19.04;100.00;99886.72;5056350;28;20428;-80
2022/08/01 00:55:59;;;;;;;16.33;10.05;;;;;;;19.05;100.00;99883.63;5055828;28;20037;-79
2022/08/01 00:58:25;;;;;;;17.15;9.50;;;;;;;18.90;100.00;99885.69;5055775;28;20074;-80
2022/08/01 01:00:50;;;;;;;13.02;8.60;;;;;;;18.84;100.00;99884.19;5056148;28;20470;-79
2022/08/01 01:03:15;;;;;;;16.50;9.20;;;;;;;18.92;100.00;99882.59;5054707;28;20036;-80
2022/08/01 01:06:03;;;;;;;11.65;7.82;;;;;;;18.69;100.00;99876.34;5055653;28;20071;-80
2022/08/01 01:08:36;;;;;;;17.65;10.70;;;;;;;18.92;100.00;99876.25;5055916;28;20454;-79
2022/08/01 01:11:18;;;;;;;17.90;9.73;;;;;;;18.80;100.00;99885.97;5056455;28;20036;-79
2022/08/01 01:13:52;;;;;;;16.05;10.98;;;;;;;18.72;100.00;99882.03;5056001;28;20425;-80
2022/08/01 01:16:18;;;;;;;;;;;;;;;18.77;100.00;99886.63;5056197;28;20029;-80
2022/08/01 01:19:02;;;;;;;21.23;9.25;;;;;;;18.82;100.00;99880.13;5056180;28;20269;-80
2022/08/01 01:21:39;;;;;;;17.45;10.43;;;;;;;18.94;100.00;99882.28;5056346;28;20024;-79
2022/08/01 01:24:13;;;;;;;17.38;10.00;;;;;;;18.90;100.00;99880.16;5055670;28;20037;-79
2022/08/01 01:27:18;;;;;;;18.92;10.60;;;;;;;18.96;100.00;99880.84;5055358;28;20516;-79
2022/08/01 01:29:48;;;;;;;14.10;8.63;;;;;;;19.00;100.00;99878.25;5056079;28;20454;-79
2022/08/01 01:32:19;;;;;;;14.95;9.70;;;;;;;18.91;100.00;99880.97;5055444;28;20036;-80
2022/08/01 01:34:47;;;;;;;17.98;11.15;;;;;;;18.97;100.00;99876.13;5055883;28;20025;-79
2022/08/01 01:37:17;;;;;;;14.50;9.02;;;;;;;19.20;100.00;99882.41;5056196;28;20311;-80
2022/08/01 01:39:44;;;;;;;20.25;10.05;;;;;;;19.13;100.00;99879.28;5055596;28;20472;-80
2022/08/01 01:42:10;;;;;;;20.25;10.57;;;;;;;19.06;100.00;99882.50;5054570;28;20122;-79
2022/08/01 01:44:37;;;;;;;15.18;9.25;;;;;;;18.88;100.00;99878.84;5055228;28;20036;-80
2022/08/01 01:47:04;;;;;;;18.67;11.65;;;;;;;18.87;100.00;99891.03;5055170;28;20051;-80
2022/08/01 01:49:30;;;;;;;21.08;10.88;;;;;;;19.14;100.00;99894.72;5055117;28;20075;-79
2022/08/01 01:51:57;;;;;;;18.25;12.65;;;;;;;19.24;100.00;99888.91;5054413;28;20097;-80
2022/08/01 01:54:27;;;;;;;19.48;12.25;;;;;;;19.31;99.85;99893.97;5053669;28;20123;-79
2022/08/01 01:56:56;;;;;;;15.57;9.90;;;;;;;19.14;100.00;99894.72;5055567;28;20079;-80
2022/08/01 01:59:27;;;;;;;14.77;8.95;;;;;;;19.01;100.00;99894.50;5054624;28;20028;-79
2022/08/01 02:01:55;;;;;;;15.13;9.77;;;;;;;19.00;100.00;99890.09;5054816;28;20035;-79
2022/08/01 02:04:22;;;;;;;17.55;10.70;;;;;;;18.92;100.00;99890.88;5054693;28;20021;-80
2022/08/01 02:06:50;;;;;;;14.15;8.82;;;;;;;18.92;100.00;99893.66;5055662;28;20111;-79
2022/08/01 02:09:18;;;;;;;20.98;10.02;;;;;;;19.00;100.00;99901.16;5054906;28;20071;-79
2022/08/01 02:11:45;;;;;;;22.05;11.43;;;;;;;18.96;100.00;99894.63;5054395;28;20031;-80
2022/08/01 02:14:12;;;;;;;18.33;10.90;;;;;;;18.93;100.00;99895.28;5054513;28;20033;-80
2022/08/01 02:16:42;;;;;;;17.70;10.75;;;;;;;18.70;100.00;99887.06;5055121;28;20053;-79
2022/08/01 02:19:08;;;;;;;18.55;10.43;;;;;;;18.77;100.00;99881.88;5054238;28;20429;-80
2022/08/01 02:21:41;;;;;;;17.83;10.25;;;;;;;18.68;100.00;99878.28;5055021;28;20064;-79
2022/08/01 02:24:14;;;;;;;19.83;10.47;;;;;;;18.82;100.00;99883.69;5055011;28;20059;-80
2022/08/01 02:26:46;;;;;;;17.83;10.77;;;;;;;18.84;100.00;99881.44;5054441;28;20020;-79
2022/08/01 02:29:16;;;;;;;17.50;9.85;;;;;;;18.77;100.00;99883.84;5054687;28;20043;-79
2022/08/01 02:31:47;;;;;;;23.02;10.32;;;;;;;18.74;100.00;99882.53;5054930;28;20033;-79
2022/08/01 02:34:16;;;;;;;18.95;10.32;;;;;;;18.74;100.00;99890.81;5054202;28;20115;-80
2022/08/01 02:36:44;;;;;;;18.73;10.57;;;;;;;18.82;100.00;99888.41;5054235;28;20442;-80
2022/08/01 02:39:13;;;;;;;17.92;10.98;;;;;;;18.66;100.00;99888.81;5054186;28;20029;-80
2022/08/01 02:41:42;;;;;;;29.02;12.55;;;;;;;18.75;100.00;99884.16;5054718;28;20033;-79
2022/08/01 02:44:10;;;;;;;16.88;9.63;;;;;;;18.76;100.00;99884.97;5054132;28;20082;-79
2022/08/01 02:46:44;;;;;;;17.58;9.85;;;;;;;18.79;100.00;99879.63;5054080;28;20442;-80
2022/08/01 02:49:12;;;;;;;31.77;13.63;;;;;;;18.87;100.00;99880.00;5054907;28;20041;-81
2022/08/01 02:51:40;;;;;;;18.80;10.65;;;;;;;18.87;100.00;99885.50;5054322;28;20400;-79
2022/08/01 02:54:07;;;;;;;26.08;11.18;;;;;;;18.86;100.00;99881.09;5053539;28;20024;-79
2022/08/01 02:56:34;;;;;;;18.48;11.98;;;;;;;18.92;100.00;99876.25;5054346;28;20036;-79
2022/08/01 02:59:11;;;;;;;24.30;13.05;;;;;;;19.06;100.00;99876.97;5054448;28;20082;-80
2022/08/01 03:01:39;;;;;;;17.77;10.98;;;;;;;19.06;100.00;99871.44;5054358;28;20021;-80
2022/08/01 03:04:05;;;;;;;20.25;11.35;;;;;;;18.77;100.00;99870.84;5052983;28;20020;-79
2022/08/01 03:06:32;;;;;;;20.58;12.07;;;;;;;18.73;100.00;99869.06;5053762;28;20033;-80
2022/08/01 03:09:01;;;;;;;21.58;13.93;;;;;;;18.84;100.00;99869.56;5054024;28;20041;-80
2022/08/01 03:11:28;;;;;;;21.10;12.10;;;;;;;19.02;100.00;99873.22;5054310;28;20025;-80
2022/08/01 03:13:55;;;;;;;22.05;12.20;;;;;;;18.79;100.00;99873.31;5053738;28;20466;-80
2022/08/01 03:16:23;;;;;;;26.42;12.55;;;;;;;18.93;100.00;99877.91;5052492;28;20063;-79
2022/08/01 03:18:51;;;;;;;25.27;15.20;;;;;;;18.88;100.00;99878.84;5053887;28;20385;-79
2022/08/01 03:21:19;;;;;;;20.33;12.73;;;;;;;18.92;100.00;99877.06;5053436;28;20458;-79
2022/08/01 03:23:45;;;;;;;22.40;14.52;;;;;;;18.85;100.00;99879.50;5053370;28;20151;-80
2022/08/01 03:26:11;;;;;;;19.63;13.13;;;;;;;18.73;100.00;99874.56;5053660;28;20028;-79
2022/08/01 03:28:38;;;;;;;30.02;15.82;;;;;;;18.95;100.00;99886.69;5053355;28;20100;-80
2022/08/01 03:31:04;;;;;;;24.40;14.77;;;;;;;18.88;100.00;99892.66;5053874;28;20035;-79
2022/08/01 03:33:30;;;;;;;28.67;14.00;;;;;;;18.94;100.00;99891.38;5053994;28;20096;-79
2022/08/01 03:35:55;;;;;;;27.20;16.05;;;;;;;19.00;100.00;99892.88;5053512;28;20055;-80
2022/08/01 03:38:26;;;;;;;26.38;15.13;;;;;;;18.87;100.00;99897.38;5053499;28;20028;-80
2022/08/01 03:40:56;;;;;;;23.05;13.65;;;;;;;18.66;100.00;99902.63;5053975;28;20017;-80
2022/08/01 03:43:37;;;;;;;27.13;13.55;;;;;;;18.73;100.00;99902.97;5054553;28;20327;-80
2022/08/01 03:46:09;;;;;;;28.23;15.23;;;;;;;18.78;100.00;99894.56;5054071;28;20032;-80
2022/08/01 03:48:40;;;;;;;26.77;15.20;;;;;;;18.83;100.00;99896.38;5053151;28;20385;-80
2022/08/01 03:51:08;;;;;;;29.27;16.27;;;;;;;18.65;100.00;99895.50;5053384;28;20339;-79
2022/08/01 03:53:35;;;;;;;25.10;15.05;;;;;;;18.66;100.00;99906.22;5052955;28;20025;-80
2022/08/01 03:56:02;;;;;;;26.88;14.05;;;;;;;18.61;100.00;99900.00;5053039;28;20029;-79
2022/08/01 03:58:29;;;;;;;24.98;15.77;;;;;;;18.74;100.00;99904.63;5054079;28;20036;-80
2022/08/01 04:00:55;;;;;;;25.23;14.02;;;;;;;18.79;100.00;99896.19;5052593;28;20111;-79
2022/08/01 04:03:20;;;;;;;25.73;14.48;;;;;;;18.82;100.00;99893.91;5053796;28;20354;-79
2022/08/01 04:05:46;;;;;;;32.30;15.80;;;;;;;18.75;100.00;99895.19;5053296;28;20100;-79
2022/08/01 04:08:11;;;;;;;30.23;16.73;;;;;;;18.73;100.00;99897.44;5053505;28;20394;-80
2022/08/01 04:10:37;;;;;;;29.40;19.50;;;;;;;18.96;100.00;99900.16;5052899;28;20458;-80
2022/08/01 04:13:02;;;;;;;40.08;17.35;;;;;;;19.14;100.00;99903.00;5052818;28;20250;-80
2022/08/01 04:15:28;;;;;;;30.30;17.30;;;;;;;19.19;100.00;99900.13;5054110;28;20472;-80
2022/08/01 04:17:53;;;;;;;31.45;18.73;;;;;;;19.21;99.21;99908.91;5057311;28;20028;-79
2022/08/01 04:20:20;;;;;;;29.75;15.75;;;;;;;19.19;99.11;99902.88;5056123;28;20025;-80
2022/08/01 04:22:45;;;;;;;29.10;17.88;;;;;;;19.07;100.00;99905.41;5057004;28;20037;-80
2022/08/01 04:25:26;;;;;;;36.10;17.05;;;;;;;19.10;99.48;99904.78;5056687;28;20568;-80
2022/08/01 04:27:53;;;;;;;31.48;16.75;;;;;;;19.09;99.92;99914.19;5056705;28;20477;-80
2022/08/01 04:30:31;;;;;;;37.90;17.77;;;;;;;19.02;100.00;99915.47;5056293;28;20024;-80
2022/08/01 04:32:58;;;;;;;24.85;14.52;;;;;;;19.24;98.76;99916.53;5056707;28;20040;-80
2022/08/01 04:35:26;;;;;;;29.08;15.45;;;;;;;19.20;98.70;99926.59;5056207;28;20090;-80
2022/08/01 04:37:53;;;;;;;27.95;15.27;;;;;;;19.08;99.37;99918.91;5056173;28;20477;-79
2022/08/01 04:40:21;;;;;;;29.10;14.07;;;;;;;19.13;99.69;99926.25;5056211;28;20029;-80
2022/08/01 04:42:48;;;;;;;26.30;14.95;;;;;;;19.25;98.23;99923.72;5056082;28;20029;-80
2022/08/01 04:45:15;;;;;;;25.58;14.32;;;;;;;19.13;98.83;99920.72;5056087;28;20524;-79
2022/08/01 04:47:42;;;;;;;26.85;14.13;;;;;;;19.09;99.51;99930.78;5056195;28;20037;-80
2022/08/01 04:50:09;;;;;;;23.98;14.18;;;;;;;19.21;98.55;99933.78;5057093;28;20452;-80
2022/08/01 04:52:36;;;;;;;22.75;13.55;;;;;;;19.33;97.47;99935.09;5056141;28;20373;-79
2022/08/01 04:55:05;;;;;;;24.13;12.70;;;;;;;19.24;98.12;99937.84;5056704;28;20027;-79
2022/08/01 04:57:34;;;;;;;25.02;13.10;;;;;;;19.42;97.06;99935.97;5056064;28;20032;-80
2022/08/01 04:59:59;;;;;;;24.15;13.95;;;;;;;19.19;97.77;99941.56;5056118;28;20029;-80
2022/08/01 05:02:27;;;;;;;27.30;15.53;;;;;;;19.55;96.63;99944.44;5056037;28;20031;-80
2022/08/01 05:04:54;;;;;;;23.30;14.63;;;;;;;19.45;96.91;99946.38;5056553;28;20252;-79
2022/08/01 05:07:20;;;;;;;26.13;13.63;;;;;;;19.20;98.11;99940.44;5055616;28;20051;-79
2022/08/01 05:09:48;;;;;;;35.42;14.98;;;;;;;19.19;99.24;99941.56;5056301;28;20509;-79
2022/08/01 05:12:13;;;;;;;20.00;12.48;;;;;;;19.20;99.26;99937.66;5055519;28;20493;-80
2022/08/01 05:14:39;;;;;;;24.52;14.77;;;;;;;19.38;97.83;99940.50;5056018;28;20017;-80
2022/08/01 05:17:06;;;;;;;23.63;13.18;;;;;;;19.46;97.55;99936.97;5056352;28;20443;-80
2022/08/01 05:19:36;;;;;;;33.88;16.13;;;;;;;19.42;98.40;99944.25;5062602;28;20028;-79
2022/08/01 05:22:06;;;;;;;28.73;15.98;;;;;;;19.30;99.02;99944.06;5076497;28;20027;-80
2022/08/01 05:24:32;;;;;;;24.23;13.98;;;;;;;19.45;98.35;99943.59;5076184;28;20028;-80
2022/08/01 05:26:59;;;;;;;28.15;15.25;;;;;;;19.34;98.52;99947.81;5074615;28;20039;-79
2022/08/01 05:29:25;;;;;;;28.88;14.63;;;;;;;19.39;98.70;99953.19;5075495;28;20435;-80
2022/08/01 05:31:51;;;;;;;28.02;14.75;;;;;;;19.35;99.07;99957.72;5075410;28;20020;-80
2022/08/01 05:34:16;;;;;;;27.50;14.98;;;;;;;19.60;97.52;99960.88;5075729;28;20066;-80
2022/08/01 05:36:42;;;;;;;32.47;16.52;;;;;;;19.82;95.19;99957.19;5075448;28;20067;-79
2022/08/01 05:39:07;;;;;;;25.02;15.00;;;;;;;19.78;96.03;99960.91;5075049;28;20020;-79
2022/08/01 05:41:33;;;;;;;24.90;14.75;;;;;;;19.77;95.90;99959.31;5075302;28;20403;-79
2022/08/01 05:43:58;;;;;;;27.67;13.20;;;;;;;19.42;97.58;99958.09;5075489;28;20025;-80
2022/08/01 05:46:24;;;;;;;27.48;15.30;;;;;;;19.56;97.54;99960.72;5075267;28;20107;-80
2022/08/01 05:48:49;;;;;;;26.40;14.63;;;;;;;19.57;97.72;99961.50;5051752;28;20074;-80
2022/08/01 05:51:14;;;;;;;28.90;12.93;;;;;;;19.81;96.02;99965.81;5056224;28;20025;-80
2022/08/01 05:53:39;;;;;;;19.60;11.27;;;;;;;19.57;96.44;99978.09;5055251;28;20573;-79
2022/08/01 05:56:05;;;;;;;24.53;13.77;;;;;;;19.57;97.58;99973.41;5055481;28;20337;-80
2022/08/01 05:58:31;;;;;;;17.75;10.23;;;;;;;19.81;95.32;99972.13;5055410;28;20587;-79
2022/08/01 06:00:57;;;;;;;18.33;10.73;;;;;;;19.71;95.40;99970.50;5054895;28;20059;-79
2022/08/01 06:03:22;;;;;;;17.45;11.07;;;;;;;19.85;95.85;99971.50;5054586;28;20052;-80
2022/08/01 06:05:47;;;;;;;22.40;10.63;;;;;;;19.86;95.15;99978.66;5054795;28;20504;-79
2022/08/01 06:08:13;;;;;;;23.02;10.35;;;;;;;19.74;94.92;99976.53;5054839;28;20436;-78
2022/08/01 06:10:38;;;;;;;22.90;11.43;;;;;;;19.69;95.48;99975.53;5055309;28;20447;-79
2022/08/01 06:13:03;;;;;;;16.03;9.07;;;;;;;19.58;95.94;99976.97;5054699;28;20478;-83
2022/08/01 06:15:30;;;;;;;19.23;12.47;;;;;;;19.43;96.91;99981.00;5054693;28;20272;-81
2022/08/01 06:17:55;;;;;;;16.13;9.52;;;;;;;19.38;96.86;99976.44;5055114;28;20312;-79
2022/08/01 06:20:20;;;;;;;19.35;11.23;;;;;;;19.64;95.72;99978.47;5054272;28;20025;-79
2022/08/01 06:22:46;;;;;;;17.80;10.75;;;;;;;19.49;96.66;99979.72;5054451;28;20020;-77
2022/08/01 06:25:11;;;;;;;20.58;11.75;;;;;;;19.90;94.47;99971.34;5055036;28;20028;-79
2022/08/01 06:27:36;;;;;;;19.83;10.67;;;;;;;19.72;94.89;99971.31;5054519;28;20104;-78
2022/08/01 06:30:03;;;;;;;20.00;12.57;;;;;;;19.43;96.41;99978.22;5054465;28;20626;-78
2022/08/01 06:32:29;;;;;;;18.23;10.02;;;;;;;19.68;95.56;99984.97;5053978;28;20024;-83
2022/08/01 06:34:55;;;;;;;19.75;11.23;;;;;;;19.78;94.35;99980.28;5053940;28;20078;-80
2022/08/01 06:37:21;;;;;;;21.08;10.57;;;;;;;19.74;94.43;99976.53;5051850;28;20025;-80
2022/08/01 06:39:46;;;;;;;14.52;8.57;;;;;;;19.39;95.31;99983.59;5053719;28;20462;-79
2022/08/01 06:42:11;;;;;;;19.40;10.13;;;;;;;19.38;95.42;99981.97;5053869;28;20151;-79
2022/08/01 06:44:37;;;;;;;26.33;9.30;;;;;;;19.54;95.20;99978.75;5054144;28;20058;-80
2022/08/01 06:47:02;;;;;;;15.90;9.37;;;;;;;19.89;93.98;99978.03;5053762;28;20060;-80
2022/08/01 06:49:27;;;;;;;16.13;9.52;;;;;;;19.94;93.28;99980.63;5049742;28;20274;-80
2022/08/01 06:51:53;;;;;;;21.58;9.35;;;;;;;20.11;92.55;99984.59;5054589;28;20377;-80
2022/08/01 06:54:18;;;;;;;16.45;11.13;;;;;;;20.09;92.37;99981.31;5050422;28;20024;-80
2022/08/01 06:56:43;;;;;;;13.55;8.50;;;;;;;20.11;92.29;99985.41;5054694;28;20021;-81
2022/08/01 06:59:09;;;;;;;15.03;10.27;;;;;;;20.06;90.89;99985.53;5053683;28;20489;-80
2022/08/01 07:01:34;;;;;;;13.65;8.55;;;;;;;20.02;91.09;99979.81;5054173;28;20268;-80
2022/08/01 07:04:00;;;;;;;14.10;8.45;;;;;;;19.76;90.99;99985.31;5051820;28;20028;-79
2022/08/01 07:06:25;;;;;;;13.75;9.32;;;;;;;20.04;90.67;99974.78;5052096;28;20056;-77
2022/08/01 07:08:52;;;;;;;13.52;8.45;;;;;;;19.79;91.63;99981.91;5051706;28;20059;-76
2022/08/01 07:11:19;;;;;;;12.80;7.47;;;;;;;19.92;90.97;99972.66;5053751;28;20025;-76
2022/08/01 07:13:45;;;;;;;12.25;8.07;;;;;;;20.08;89.75;99974.16;5054445;28;20025;-76
2022/08/01 07:16:11;;;;;;;13.88;8.68;;;;;;;20.32;89.75;99965.38;5053415;28;20462;-76
2022/08/01 07:18:36;;;;;;;12.30;7.70;;;;;;;20.39;89.65;99968.47;5053665;28;20032;-76
2022/08/01 07:21:01;;;;;;;12.90;7.60;;;;;;;20.17;89.35;99967.50;5053638;28;20021;-76
2022/08/01 07:23:27;;;;;;;12.97;6.80;;;;;;;20.30;89.81;99965.69;5053325;28;20707;-76
2022/08/01 07:25:52;;;;;;;16.77;8.00;;;;;;;20.20;89.32;99970.75;5053598;28;20025;-76
2022/08/01 07:28:18;;;;;;;16.45;7.65;;;;;;;20.45;88.00;99962.75;5053599;28;20761;-76
2022/08/01 07:30:44;;;;;;;16.05;8.63;;;;;;;20.08;89.75;99974.97;5054138;28;20040;-76
2022/08/01 07:33:10;;;;;;;13.25;9.20;;;;;;;20.02;89.51;99967.94;5053575;28;20033;-76
2022/08/01 07:35:37;;;;;;;11.13;5.90;;;;;;;19.72;89.94;99974.09;5053768;28;20075;-76
2022/08/01 07:38:04;;;;;;;12.48;7.15;;;;;;;19.68;89.59;99973.91;5053766;28;20017;-76
2022/08/01 07:40:29;;;;;;;9.57;5.70;;;;;;;19.98;88.60;99978.03;5054005;28;20021;-77
2022/08/01 07:42:54;;;;;;;11.27;7.70;;;;;;;19.97;89.52;99981.94;5053405;28;20159;-77
2022/08/01 07:45:20;;;;;;;13.03;7.13;;;;;;;20.31;87.80;99980.34;5053458;28;20286;-75
2022/08/01 07:47:46;;;;;;;12.57;7.28;;;;;;;20.25;87.95;99979.72;5052921;28;20266;-76
2022/08/01 07:50:12;;;;;;;15.48;7.60;;;;;;;20.20;87.73;99981.84;5053771;28;20462;-77
2022/08/01 07:52:38;;;;;;;10.90;7.20;;;;;;;20.25;87.93;99976.94;5057039;28;20347;-77
2022/08/01 07:55:04;;;;;;;11.95;6.75;;;;;;;20.31;87.60;99983.13;5057447;28;20021;-77
2022/08/01 07:57:29;;;;;;;9.43;5.82;;;;;;;20.37;87.28;99987.38;5053609;28;20025;-77
2022/08/01 07:59:54;;;;;;;11.98;6.93;;;;;;;20.20;86.61;99987.38;5054270;28;20028;-77
2022/08/01 08:02:20;;;;;;;10.77;5.38;;;;;;;20.41;85.71;99982.81;5054560;28;20053;-77
2022/08/01 08:04:45;;;;;;;12.37;5.93;;;;;;;20.07;86.87;99989.94;5052647;28;20021;-77
2022/08/01 08:07:10;;;;;;;11.70;7.63;;;;;;;20.07;86.90;99992.69;5056724;28;20284;-77
2022/08/01 08:09:36;;;;;;;11.93;6.33;;;;;;;20.18;86.81;99996.78;5057327;28;20361;-77
2022/08/01 08:12:01;;;;;;;14.13;7.38;;;;;;;20.38;85.97;99993.72;5057508;28;20246;-77
2022/08/01 08:14:26;;;;;;;13.10;8.23;;;;;;;20.58;84.86;99988.66;5054142;28;20025;-77
2022/08/01 08:16:52;;;;;;;11.27;6.78;;;;;;;20.00;85.92;99995.13;5057076;28;20362;-77
2022/08/01 08:19:17;;;;;;;12.70;7.50;;;;;;;20.25;85.42;99989.97;5056865;28;20032;-77
2022/08/01 08:21:43;;;;;;;10.20;6.30;;;;;;;20.33;85.29;99991.91;5055602;28;20024;-77
2022/08/01 08:24:19;;;;;;;12.32;6.10;;;;;;;20.51;84.72;99995.50;5057010;28;20401;-77
2022/08/01 08:26:44;;;;;;;10.07;6.68;;;;;;;20.54;85.28;99996.81;5053464;28;20036;-77
2022/08/01 08:29:10;;;;;;;12.15;7.60;;;;;;;20.65;83.16;100000.84;5056457;28;20024;-77
2022/08/01 08:31:35;;;;;;;12.05;7.22;;;;;;;21.17;81.35;100003.06;5054972;28;20037;-78
2022/08/01 08:34:01;;;;;;;9.50;7.28;;;;;;;20.72;82.73;99994.00;5056490;28;20033;-76
2022/08/01 08:36:27;;;;;;;9.63;6.93;;;;;;;20.95;82.46;99999.34;5056225;28;20017;-77
2022/08/01 08:38:53;;;;;;;11.95;7.28;;;;;;;20.81;82.96;100003.09;5057583;28;20068;-77
2022/08/01 08:41:18;;;;;;;12.68;7.22;;;;;;;20.70;82.77;100007.38;5056393;28;20021;-77
2022/08/01 08:43:43;;;;;;;11.15;7.40;;;;;;;20.62;84.10;100001.53;5056113;28;20021;-77
2022/08/01 08:46:13;;;;;;;12.13;7.00;;;;;;;20.77;83.12;100004.91;5056909;28;20025;-77
2022/08/01 08:48:40;;;;;;;19.67;7.85;;;;;;;20.86;82.46;100008.47;5056641;28;20133;-77
2022/08/01 08:51:08;;;;;;;10.35;6.45;;;;;;;21.39;80.47;100006.72;5055961;28;20021;-77
2022/08/01 08:53:35;;;;;;;12.10;7.15;;;;;;;21.41;79.51;100009.97;5056690;28;20392;-77
2022/08/01 08:56:02;;;;;;;9.88;5.63;;;;;;;21.38;78.83;100011.44;5056751;28;20044;-77
2022/08/01 08:58:28;;;;;;;8.32;5.35;;;;;;;21.17;79.07;100006.66;5055830;28;20082;-77
2022/08/01 09:00:56;;;;;;;9.30;4.97;;;;;;;21.17;79.08;100006.66;5056005;28;20336;-77
2022/08/01 09:03:21;;;;;;;9.07;4.32;;;;;;;20.96;79.30;100009.28;5053891;28;20465;-77
2022/08/01 09:05:46;;;;;;;9.88;5.32;;;;;;;21.09;79.47;100008.28;5056534;28;20033;-76
2022/08/01 09:08:12;;;;;;;8.73;4.83;;;;;;;21.11;78.94;100008.75;5056170;28;20028;-76
2022/08/01 09:10:37;;;;;;;6.38;4.10;;;;;;;21.62;77.47;100009.22;5055594;28;20758;-76
2022/08/01 09:13:06;;;;;;;7.65;4.00;;;;;;;21.55;77.03;100016.09;5055827;28;20025;-77
2022/08/01 09:15:50;;;;;;;6.82;4.00;;;;;;;21.42;77.27;100022.66;5055712;28;20032;-77
2022/08/01 09:18:30;;;;;;;8.48;4.13;;;;;;;21.45;76.97;100025.63;5054138;28;20035;-76
2022/08/01 09:21:14;;;;;;;7.60;3.30;;;;;;;21.16;76.87;100026.34;5056204;28;20040;-77
2022/08/01 09:23:42;;;;;;;5.47;3.78;;;;;;;20.99;78.34;100028.06;5055732;28;20029;-78
2022/08/01 09:26:09;;;;;;;5.70;4.05;;;;;;;21.04;77.27;100027.03;5053635;28;20063;-77
2022/08/01 09:28:35;;;;;;;7.47;3.90;;;;;;;21.09;77.34;100022.13;5053550;28;20032;-77
2022/08/01 09:31:09;;;;;;;8.00;4.57;;;;;;;21.06;77.93;100033.91;5053107;28;20029;-77
2022/08/01 09:33:53;;;;;;;8.30;4.13;;;;;;;21.18;77.21;100032.38;5055050;28;20036;-77
2022/08/01 09:36:21;;;;;;;9.63;4.18;;;;;;;21.60;77.29;100028.94;5055388;28;20033;-77
2022/08/01 09:38:46;;;;;;;6.93;5.00;;;;;;;21.83;74.22;100027.88;5055095;28;20021;-77
2022/08/01 09:41:12;;;;;;;9.15;5.93;;;;;;;21.87;73.56;100037.16;5053427;28;20073;-78
2022/08/01 09:43:38;;;;;;;12.00;5.60;;;;;;;21.60;73.52;100039.25;5055846;28;20021;-78
2022/08/01 09:46:13;;;;;;;6.97;4.43;;;;;;;21.66;73.59;100046.25;5055743;28;20492;-77
2022/08/01 09:48:54;;;;;;;7.40;4.57;;;;;;;21.62;72.83;100039.75;5055464;28;20063;-77
2022/08/01 09:51:33;;;;;;;18.48;5.22;;;;;;;21.31;75.57;100039.69;5056017;28;20379;-87
2022/08/01 09:53:59;;;;;;;7.47;4.50;;;;;;;21.72;74.91;100041.31;5054820;28;20099;-78
2022/08/01 09:56:24;;;;;;;8.32;3.97;;;;;;;21.79;73.58;100045.19;5054647;28;20033;-78
2022/08/01 09:58:54;;;;;;;6.88;4.47;;;;;;;22.17;73.04;100045.47;5054619;28;20035;-78
2022/08/01 10:01:23;;;;;;;6.25;4.35;;;;;;;22.22;72.03;100050.84;5054931;28;20074;-78
2022/08/01 10:04:05;;;;;;;7.32;3.53;;;;;;;22.39;70.21;100040.75;5054556;28;20032;-78
2022/08/01 10:06:30;;;;;;;8.55;3.65;;;;;;;22.48;70.19;100044.25;5053227;28;20365;-79
2022/08/01 10:08:55;;;;;;;5.53;3.78;;;;;;;22.42;68.74;100040.06;5054825;28;20055;-78
2022/08/01 10:11:21;;;;;;;6.23;4.17;;;;;;;22.44;69.42;100042.50;5055248;28;20043;-79
2022/08/01 10:13:48;;;;;;;3.72;2.58;;;;;;;22.64;67.98;100035.31;5054436;28;20270;-78
2022/08/01 10:16:14;;;;;;;5.28;3.13;;;;;;;22.54;68.42;100041.28;5054357;28;20029;-78
2022/08/01 10:18:40;;;;;;;5.68;3.50;;;;;;;22.90;66.80;100031.50;5055181;28;20102;-79
2022/08/01 10:21:07;;;;;;;5.32;3.20;;;;;;;23.12;67.99;100032.25;5055060;28;20020;-78
2022/08/01 10:23:37;;;;;;;3.90;2.42;;;;;;;23.44;66.01;100027.00;5054483;28;20025;-78
2022/08/01 10:26:04;;;;;;;3.60;2.22;;;;;;;23.18;66.78;100025.31;5054511;28;20103;-78
2022/08/01 10:28:31;;;;;;;4.80;2.80;;;;;;;23.46;65.96;100035.00;5054200;28;20021;-78
2022/08/01 10:30:57;;;;;;;4.72;2.67;;;;;;;23.50;65.73;100023.97;5053093;28;20078;-78
2022/08/01 10:33:24;;;;;;;2.88;2.05;;;;;;;23.51;64.26;100028.41;5054610;28;20032;-76
2022/08/01 10:35:51;;;;;;;3.28;2.03;;;;;;;23.24;64.75;100027.88;5054455;28;20025;-76
2022/08/01 10:38:17;;;;;;;4.68;2.58;;;;;;;22.85;65.02;100040.88;5054253;28;20031;-76
2022/08/01 10:40:43;;;;;;;4.20;2.95;;;;;;;22.80;65.65;100031.94;5052320;28;20104;-76
2022/08/01 10:43:14;;;;;;;4.88;3.28;;;;;;;22.84;64.92;100033.66;5053894;28;20143;-76
2022/08/01 10:45:42;;;;;;;5.57;3.45;;;;;;;22.90;65.83;100039.84;5054084;28;20109;-76
2022/08/01 10:48:16;;;;;;;3.63;2.20;;;;;;;22.74;65.46;100036.88;5053499;28;20044;-76
2022/08/01 10:50:45;;;;;;;3.15;2.05;;;;;;;22.78;65.68;100039.81;5054419;28;20024;-76
2022/08/01 10:53:12;;;;;;;3.83;1.80;;;;;;;22.53;66.12;100034.91;5054555;28;20029;-76
2022/08/01 10:56:09;;;;;;;3.80;1.70;;;;;;;22.60;66.68;100035.19;5051984;28;20040;-76
2022/08/01 10:58:41;;;;;;;3.90;1.13;;;;;;;22.58;66.64;100042.22;5058424;28;20045;-76
2022/08/01 11:01:20;;;;;;;2.45;1.27;;;;;;;22.62;66.29;100034.81;5053911;28;20417;-78
2022/08/01 11:04:08;;;;;;;4.30;1.55;;;;;;;22.71;67.48;100041.16;5053829;28;20029;-77
2022/08/01 11:06:33;;;;;;;2.90;1.30;;;;;;;22.95;66.62;100047.13;5054719;28;20342;-77
2022/08/01 11:09:01;;;;;;;4.57;1.70;;;;;;;23.32;64.98;100035.28;5054290;28;20021;-77
2022/08/01 11:11:27;;;;;;;3.03;1.40;;;;;;;23.47;65.72;100036.63;5053795;28;20016;-77
2022/08/01 11:14:01;;;;;;;2.75;1.40;;;;;;;23.36;65.72;100035.41;5053738;28;20025;-77
2022/08/01 11:16:28;;;;;;;3.00;1.45;;;;;;;23.38;66.38;100038.66;5051534;28;20025;-78
2022/08/01 11:18:53;;;;;;;3.55;1.38;;;;;;;23.38;66.76;100036.69;5054080;28;20025;-77
2022/08/01 11:21:23;;;;;;;3.40;1.67;;;;;;;23.19;66.70;100026.94;5054233;28;20074;-77